createdAt,value
2023-03-26T00:00:13.106Z,14.67
2023-03-26T00:02:48.202Z,14.37
2023-03-26T00:05:22.927Z,14.12
2023-03-26T00:07:52.488Z,14.22
2023-03-26T05:31:23.150Z,11.49
2023-03-26T05:33:57.881Z,11.36
2023-03-26T05:36:28.966Z,11.30
2023-03-26T05:44:00.288Z,11.41
2023-03-26T05:46:42.061Z,11.52
2023-03-26T05:51:03.039Z,11.71
2023-03-26T05:54:48.996Z,11.90
2023-03-26T05:57:02.720Z,12.06
2023-03-26T06:00:16.054Z,12.13
2023-03-26T06:02:56.621Z,12.07
2023-03-26T06:06:01.321Z,12.00
2023-03-26T06:09:01.382Z,12.17
2023-03-26T06:11:35.930Z,12.27
2023-03-26T06:14:09.544Z,12.23
2023-03-26T06:16:59.365Z,12.35
2023-03-26T06:20:42.018Z,12.19
2023-03-26T06:23:21.195Z,12.10
2023-03-26T06:26:04.621Z,12.26
2023-03-26T06:29:23.825Z,12.19
2023-03-26T06:32:26.632Z,12.13
2023-03-26T06:35:06.977Z,12.25
2023-03-26T06:37:35.527Z,12.47
2023-03-26T06:40:15.898Z,12.69
2023-03-26T06:43:07.787Z,13.10
2023-03-26T06:46:08.107Z,12.93
2023-03-26T06:48:59.060Z,12.62
2023-03-26T07:18:52.320Z,13.79
2023-03-26T07:50:22.237Z,15.28
2023-03-26T07:59:21.876Z,15.96
2023-03-26T08:02:52.121Z,16.16
2023-03-26T08:05:53.032Z,16.47
2023-03-26T08:09:01.834Z,16.59
2023-03-26T08:12:08.140Z,16.55
2023-03-26T08:14:57.063Z,16.40
2023-03-26T08:18:04.477Z,15.98
2023-03-26T08:20:44.466Z,16.15
2023-03-26T08:23:52.143Z,16.30
2023-03-26T08:26:45.609Z,16.14
2023-03-26T08:29:30.144Z,16.51
2023-03-26T08:32:00.276Z,16.66
2023-03-26T08:34:28.231Z,16.34
2023-03-26T08:36:58.981Z,16.80
2023-03-26T08:39:29.767Z,16.54
2023-03-26T08:42:24.415Z,16.85
2023-03-26T08:45:13.495Z,17.34
2023-03-26T08:48:14.150Z,17.29
2023-03-26T08:51:03.612Z,17.08
2023-03-26T08:53:32.042Z,16.96
2023-03-26T08:56:19.760Z,17.09
2023-03-26T09:00:19.441Z,17.18
2023-03-26T09:03:12.017Z,17.21
2023-03-26T09:06:12.383Z,17.67
2023-03-26T09:09:19.050Z,17.33
2023-03-26T09:12:16.728Z,17.89
2023-03-26T09:15:18.448Z,17.65
2023-03-26T09:17:49.410Z,17.58
2023-03-26T09:20:57.934Z,17.81
2023-03-26T09:23:56.895Z,17.42
2023-03-26T09:26:28.409Z,17.59
2023-03-26T09:28:57.492Z,17.60
2023-03-26T09:32:07.475Z,17.72
2023-03-26T09:35:16.794Z,18.07
2023-03-26T09:38:11.815Z,18.41
2023-03-26T09:41:20.474Z,18.34
2023-03-26T09:47:35.114Z,18.03
2023-03-26T09:50:20.592Z,17.83
2023-03-26T09:53:05.972Z,17.39
2023-03-26T09:55:43.039Z,17.64
2023-03-26T09:58:32.915Z,17.73
2023-03-26T10:01:08.882Z,17.40
2023-03-26T10:04:10.986Z,17.19
2023-03-26T10:06:54.793Z,17.68
2023-03-26T10:09:29.474Z,17.56
2023-03-26T10:12:32.529Z,17.55
2023-03-26T10:15:36.348Z,17.50
2023-03-26T10:18:35.287Z,17.64
2023-03-26T10:21:27.356Z,17.44
2023-03-26T10:24:03.097Z,17.32
2023-03-26T10:26:38.529Z,17.46
2023-03-26T10:29:50.344Z,17.60
2023-03-26T10:33:06.360Z,17.54
2023-03-26T10:35:47.676Z,17.92
2023-03-26T10:38:58.523Z,17.50
2023-03-26T10:41:46.505Z,17.35
2023-03-26T10:44:19.920Z,17.54
2023-03-26T10:47:20.792Z,17.61
2023-03-26T10:50:09.161Z,17.68
2023-03-26T10:52:37.529Z,17.60
2023-03-26T10:55:19.432Z,17.41
2023-03-26T10:58:04.664Z,17.67
2023-03-26T11:00:43.195Z,18.13
2023-03-26T11:03:39.720Z,18.59
2023-03-26T11:06:40.106Z,19.01
2023-03-26T11:09:25.125Z,19.03
2023-03-26T11:12:26.124Z,18.98
2023-03-26T11:15:22.435Z,19.00
2023-03-26T11:18:01.439Z,19.03
2023-03-26T11:20:40.163Z,19.19
2023-03-26T11:23:27.525Z,19.20
2023-03-26T11:26:15.223Z,19.69
2023-03-26T11:29:03.049Z,19.82
2023-03-26T11:32:03.409Z,19.32
2023-03-26T11:34:55.716Z,19.42
2023-03-26T11:37:55.767Z,19.64
2023-03-26T11:40:44.695Z,19.60
2023-03-26T11:43:27.631Z,20.25
2023-03-26T11:46:02.637Z,20.38
2023-03-26T11:49:00.036Z,20.16
2023-03-26T11:51:38.225Z,20.30
2023-03-26T11:54:25.985Z,20.28
2023-03-26T11:57:07.154Z,19.97
2023-03-26T11:59:56.518Z,20.09
2023-03-26T12:02:34.689Z,20.24
2023-03-26T12:05:20.916Z,20.72
2023-03-26T12:07:58.041Z,20.46
2023-03-26T12:10:38.470Z,20.63
2023-03-26T12:13:30.594Z,19.93
2023-03-26T12:16:22.803Z,19.25
2023-03-26T12:22:00.479Z,19.54
2023-03-26T12:24:36.394Z,19.43
2023-03-26T12:27:45.974Z,19.22
2023-03-26T12:30:27.543Z,19.20
2023-03-26T12:33:03.851Z,19.45
2023-03-26T12:35:35.117Z,19.35
2023-03-26T12:38:22.502Z,19.24
2023-03-26T12:44:43.455Z,19.20
2023-03-26T12:44:52.935Z,18.90
2023-03-26T12:47:58.717Z,18.62
2023-03-26T12:50:59.498Z,19.02
2023-03-26T12:53:38.335Z,18.97
2023-03-26T12:56:38.997Z,18.64
2023-03-26T12:59:37.648Z,18.42
2023-03-26T13:03:07.987Z,18.46
2023-03-26T13:06:23.391Z,18.40
2023-03-26T13:09:35.072Z,18.43
2023-03-26T13:12:23.104Z,18.70
2023-03-26T13:19:01.566Z,18.67
2023-03-26T13:22:16.927Z,18.24
2023-03-26T13:25:37.444Z,18.21
2023-03-26T13:28:54.213Z,18.24
2023-03-26T13:32:17.198Z,18.24
2023-03-26T13:35:17.631Z,18.27
2023-03-26T13:38:19.345Z,18.26
2023-03-26T13:41:28.624Z,18.41
2023-03-26T19:49:52.860Z,12.47
2023-03-26T19:52:20.572Z,12.74
2023-03-26T19:55:00.642Z,12.51
2023-03-26T19:57:33.481Z,12.43
2023-03-26T20:00:01.663Z,12.68
2023-03-26T20:02:33.441Z,12.52
2023-03-26T20:05:01.748Z,12.31
2023-03-26T20:08:00.143Z,12.38
2023-03-26T20:10:29.809Z,12.55
2023-03-26T20:12:58.554Z,12.43
2023-03-26T20:15:35.018Z,12.58
2023-03-26T20:18:21.764Z,12.36
2023-03-26T20:20:50.789Z,12.10
2023-03-26T20:23:20.509Z,12.17
2023-03-26T20:25:55.170Z,12.24
2023-03-26T20:28:24.696Z,12.18
2023-03-26T20:30:54.687Z,12.14
2023-03-26T20:33:26.804Z,12.28
2023-03-26T20:35:57.001Z,12.23
2023-03-26T20:38:38.932Z,12.18
2023-03-26T20:44:22.677Z,12.26
2023-03-26T20:46:54.046Z,11.87
2023-03-26T20:49:23.039Z,12.30
2023-03-26T20:51:51.505Z,12.40
2023-03-26T20:54:25.496Z,11.97
2023-03-26T20:56:55.922Z,12.00
2023-03-26T20:59:27.171Z,12.11
2023-03-26T21:01:58.134Z,12.13
2023-03-26T21:04:27.115Z,11.94
2023-03-26T21:07:03.153Z,11.87
2023-03-26T21:09:35.761Z,11.71
2023-03-26T21:12:21.584Z,11.73
2023-03-26T21:14:49.389Z,11.68
2023-03-26T21:17:21.081Z,11.57
2023-03-26T21:19:49.519Z,11.48
2023-03-26T21:23:00.548Z,11.78
2023-03-26T21:25:47.280Z,11.78
2023-03-26T21:28:39.763Z,11.77
2023-03-26T21:31:19.799Z,11.67
2023-03-26T21:33:49.591Z,11.54
2023-03-26T21:36:19.925Z,11.45
2023-03-26T21:38:48.143Z,11.77
2023-03-26T21:42:06.519Z,11.47
2023-03-26T21:44:37.655Z,11.54
2023-03-26T21:47:09.206Z,11.30
2023-03-26T21:49:38.706Z,11.40
2023-03-26T21:52:07.288Z,11.63
2023-03-26T21:54:35.757Z,11.48
2023-03-26T21:57:25.592Z,11.55
2023-03-26T22:00:07.241Z,11.74
2023-03-26T22:02:48.848Z,11.83
2023-03-26T22:05:19.970Z,11.93
2023-03-26T22:08:30.766Z,11.72
2023-03-26T22:11:08.906Z,11.72
2023-03-26T22:13:38.636Z,11.57
2023-03-26T22:16:09.823Z,11.39
2023-03-26T22:18:40.840Z,11.52
2023-03-26T22:21:09.643Z,11.60
2023-03-26T22:23:38.493Z,11.76
2023-03-26T22:26:07.629Z,11.78
2023-03-26T22:28:35.799Z,11.50
2023-03-26T22:31:11.152Z,11.44
2023-03-26T22:33:40.195Z,11.48
2023-03-26T22:36:22.712Z,11.52
2023-03-26T22:39:29.048Z,11.55
2023-03-26T22:42:16.050Z,11.33
2023-03-26T22:44:43.999Z,11.54
2023-03-26T22:47:13.584Z,11.47
2023-03-26T22:49:42.028Z,11.20
2023-03-26T22:52:10.320Z,11.25
2023-03-26T22:54:38.897Z,11.37
2023-03-26T22:57:07.309Z,10.88
2023-03-26T22:59:35.247Z,11.22
2023-03-26T23:02:03.049Z,11.03
2023-03-26T23:04:33.336Z,11.05
2023-03-26T23:07:01.350Z,11.34
2023-03-26T23:09:30.115Z,11.12
2023-03-26T23:11:58.600Z,10.62
2023-03-26T23:14:26.442Z,10.74
2023-03-26T23:16:54.352Z,10.88
2023-03-26T23:19:22.140Z,10.86
2023-03-26T23:27:40.292Z,10.44
2023-03-26T23:30:18.456Z,10.66
2023-03-26T23:32:47.153Z,10.42
2023-03-26T23:35:15.171Z,10.29
2023-03-26T23:37:43.047Z,10.37
2023-03-26T23:40:12.573Z,10.33
2023-03-26T23:42:40.434Z,10.39
2023-03-26T23:45:14.519Z,10.51
2023-03-26T23:47:42.811Z,10.34
2023-03-26T23:50:11.374Z,10.33
2023-03-26T23:52:40.649Z,10.28
2023-03-26T23:55:08.846Z,10.38
2023-03-26T23:57:37.275Z,10.72
